createdAt,value
2024-04-25T00:00:10.812Z,95384.78
2024-04-25T00:02:37.519Z,95379.25
2024-04-25T00:05:04.267Z,95383.91
2024-04-25T00:07:30.888Z,95382.47
2024-04-25T00:09:57.580Z,95379.78
2024-04-25T00:12:24.254Z,95381.47
2024-04-25T00:14:50.887Z,95380.38
2024-04-25T00:17:18.189Z,95381.41
2024-04-25T00:19:44.958Z,95381.47
2024-04-25T00:22:11.671Z,95378.63
2024-04-25T00:24:38.339Z,95382.28
2024-04-25T00:27:05.081Z,95382.81
2024-04-25T00:29:31.722Z,95373.78
2024-04-25T00:31:58.334Z,95368.09
2024-04-25T00:34:24.931Z,95370.59
2024-04-25T00:36:51.637Z,95371.34
2024-04-25T00:39:18.204Z,95366.34
2024-04-25T00:41:44.864Z,95367.44
2024-04-25T00:44:11.567Z,95362.97
2024-04-25T00:46:40.989Z,95350.06
2024-04-25T00:49:10.576Z,95354.63
2024-04-25T00:51:38.750Z,95360.94
2024-04-25T00:54:05.637Z,95358.88
2024-04-25T00:56:33.426Z,95362.59
2024-04-25T00:59:02.906Z,95343.56
2024-04-25T01:01:33.031Z,95357.34
2024-04-25T01:04:01.978Z,95337.72
2024-04-25T01:06:33.822Z,95353.34
2024-04-25T01:09:01.324Z,95353.81
2024-04-25T01:11:30.293Z,95354.63
2024-04-25T01:13:57.196Z,95341.66
2024-04-25T01:16:24.012Z,95347.25
2024-04-25T01:18:50.724Z,95355.25
2024-04-25T01:21:17.521Z,95344.69
2024-04-25T01:23:46.923Z,95349.25
2024-04-25T01:26:14.129Z,95343.41
2024-04-25T01:28:42.752Z,95345.03
2024-04-25T01:31:10.614Z,95349.63
2024-04-25T01:33:39.071Z,95351.25
2024-04-25T01:36:06.168Z,95353.22
2024-04-25T01:38:32.851Z,95351.19
2024-04-25T01:40:59.474Z,95349.00
2024-04-25T01:43:26.044Z,95348.78
2024-04-25T01:45:52.763Z,95352.38
2024-04-25T01:48:19.643Z,95359.13
2024-04-25T01:50:46.383Z,95352.06
2024-04-25T01:53:13.080Z,95357.84
2024-04-25T01:55:39.892Z,95357.84
2024-04-25T01:58:06.508Z,95361.63
2024-04-25T02:00:33.189Z,95363.25
2024-04-25T02:02:59.950Z,95362.16
2024-04-25T02:05:26.655Z,95363.78
2024-04-25T02:07:53.325Z,95361.94
2024-04-25T02:10:19.937Z,95358.16
2024-04-25T02:12:46.588Z,95359.66
2024-04-25T02:15:13.384Z,95362.16
2024-04-25T02:17:41.338Z,95363.13
2024-04-25T02:20:27.571Z,95363.00
2024-04-25T02:23:13.420Z,95361.25
2024-04-25T02:25:40.121Z,95360.59
2024-04-25T02:28:06.847Z,95358.41
2024-04-25T02:30:33.548Z,95361.66
2024-04-25T02:33:00.421Z,95358.56
2024-04-25T02:35:27.144Z,95354.56
2024-04-25T02:37:53.801Z,95353.59
2024-04-25T02:40:20.426Z,95359.22
2024-04-25T02:42:47.087Z,95361.81
2024-04-25T02:45:13.719Z,95360.72
2024-04-25T02:47:40.442Z,95359.44
2024-04-25T02:50:08.903Z,95356.59
2024-04-25T02:52:35.518Z,95359.84
2024-04-25T02:55:02.423Z,95357.53
2024-04-25T02:57:29.038Z,95360.72
2024-04-25T02:59:55.668Z,95353.22
2024-04-25T03:02:22.358Z,95358.44
2024-04-25T03:04:49.034Z,95357.75
2024-04-25T03:07:15.642Z,95340.50
2024-04-25T03:09:42.246Z,95353.91
2024-04-25T03:12:08.910Z,95357.38
2024-04-25T03:14:35.590Z,95354.66
2024-04-25T03:17:02.215Z,95357.03
2024-04-25T03:19:28.864Z,95349.78
2024-04-25T03:21:55.463Z,95361.88
2024-04-25T03:24:22.085Z,95357.84
2024-04-25T03:26:48.853Z,95355.22
2024-04-25T03:29:15.465Z,95353.34
2024-04-25T03:31:42.127Z,95348.88
2024-04-25T03:34:08.754Z,95360.97
2024-04-25T03:36:35.402Z,95354.91
2024-04-25T03:39:02.118Z,95348.25
2024-04-25T03:41:29.375Z,95348.81
2024-04-25T03:43:56.252Z,95349.41
2024-04-25T03:46:22.863Z,95349.50
2024-04-25T03:48:49.522Z,95350.41
2024-04-25T03:51:16.232Z,95356.72
2024-04-25T03:53:42.849Z,95365.47
2024-04-25T03:56:09.526Z,95361.72
2024-04-25T03:58:36.126Z,95363.56
2024-04-25T04:01:02.793Z,95359.28
2024-04-25T04:03:29.513Z,95372.97
2024-04-25T04:05:56.168Z,95364.28
2024-04-25T04:08:23.296Z,95372.34
2024-04-25T04:10:49.951Z,95372.84
2024-04-25T04:13:16.603Z,95372.22
2024-04-25T04:15:43.334Z,95370.25
2024-04-25T04:18:10.000Z,95367.00
2024-04-25T04:20:36.719Z,95365.13
2024-04-25T04:23:03.438Z,95366.94
2024-04-25T04:25:30.077Z,95367.47
2024-04-25T04:27:56.722Z,95374.59
2024-04-25T04:30:23.344Z,95375.41
2024-04-25T04:32:50.051Z,95379.72
2024-04-25T04:35:16.760Z,95381.22
2024-04-25T04:37:43.545Z,95382.22
2024-04-25T04:40:10.606Z,95376.66
2024-04-25T04:42:37.407Z,95379.72
2024-04-25T04:45:04.275Z,95384.31
2024-04-25T04:47:31.054Z,95382.47
2024-04-25T04:49:57.658Z,95386.06
2024-04-25T04:52:24.333Z,95389.25
2024-04-25T04:54:50.920Z,95388.50
2024-04-25T04:57:17.797Z,95382.81
2024-04-25T04:59:44.444Z,95382.47
2024-04-25T05:02:11.601Z,95387.47
2024-04-25T05:04:39.492Z,95388.09
2024-04-25T05:07:07.075Z,95393.97
2024-04-25T05:09:35.286Z,95380.56
2024-04-25T05:12:02.256Z,95391.97
2024-04-25T05:14:28.910Z,95387.88
2024-04-25T05:16:55.616Z,95391.50
2024-04-25T05:19:22.319Z,95391.47
2024-04-25T05:21:51.723Z,95400.22
2024-04-25T05:24:18.275Z,95395.13
2024-04-25T05:26:44.892Z,95402.75
2024-04-25T05:29:11.694Z,95386.72
2024-04-25T05:31:39.394Z,95396.69
2024-04-25T05:34:06.101Z,95402.81
2024-04-25T05:36:32.822Z,95408.63
2024-04-25T05:38:59.388Z,95412.00
2024-04-25T05:41:26.168Z,95416.53
2024-04-25T05:43:52.838Z,95413.91
2024-04-25T05:46:22.836Z,95418.94
2024-04-25T05:48:49.497Z,95420.53
2024-04-25T05:51:16.148Z,95414.91
2024-04-25T05:53:42.988Z,95427.69
2024-04-25T05:56:09.856Z,95426.28
2024-04-25T05:58:37.492Z,95419.09
2024-04-25T06:01:04.414Z,95408.31
2024-04-25T06:03:31.044Z,95422.81
2024-04-25T06:05:57.881Z,95418.31
2024-04-25T06:08:24.547Z,95414.06
2024-04-25T06:10:51.225Z,95409.41
2024-04-25T06:13:19.097Z,95420.69
2024-04-25T06:15:45.895Z,95418.03
2024-04-25T06:18:13.544Z,95425.16
2024-04-25T06:20:40.359Z,95418.22
2024-04-25T06:23:07.966Z,95426.28
2024-04-25T06:25:34.682Z,95417.38
2024-04-25T06:28:02.086Z,95427.28
2024-04-25T06:30:28.757Z,95426.72
2024-04-25T06:32:55.596Z,95425.78
2024-04-25T06:35:22.336Z,95424.78
2024-04-25T06:37:48.938Z,95429.31
2024-04-25T06:40:15.660Z,95417.03
2024-04-25T06:42:42.289Z,95427.53
2024-04-25T06:45:08.877Z,95429.44
2024-04-25T06:47:35.640Z,95432.09
2024-04-25T06:50:02.324Z,95434.06
2024-04-25T06:52:28.920Z,95431.50
2024-04-25T06:54:55.680Z,95429.44
2024-04-25T06:57:22.284Z,95433.66
2024-04-25T06:59:51.623Z,95427.94
2024-04-25T07:02:20.763Z,95429.31
2024-04-25T07:04:47.744Z,95431.47
2024-04-25T07:07:14.377Z,95429.81
2024-04-25T07:09:40.989Z,95423.78
2024-04-25T07:12:07.850Z,95434.56
2024-04-25T07:14:34.561Z,95432.09
2024-04-25T07:17:01.257Z,95427.00
2024-04-25T07:19:27.942Z,95428.69
2024-04-25T07:21:56.095Z,95435.88
2024-04-25T07:24:23.087Z,95426.03
2024-04-25T07:26:49.763Z,95426.72
2024-04-25T07:29:16.597Z,95425.66
2024-04-25T07:31:43.232Z,95421.75
2024-04-25T07:34:10.113Z,95424.25
2024-04-25T07:36:36.893Z,95422.97
2024-04-25T07:39:04.362Z,95420.22
2024-04-25T07:41:33.201Z,95434.88
2024-04-25T07:43:59.980Z,95433.28
2024-04-25T07:46:27.020Z,95431.53
2024-04-25T07:48:54.038Z,95427.84
2024-04-25T07:51:20.791Z,95432.69
2024-04-25T07:53:47.550Z,95429.09
2024-04-25T07:56:14.449Z,95425.84
2024-04-25T07:58:41.136Z,95435.34
2024-04-25T08:01:08.975Z,95429.44
2024-04-25T08:03:35.916Z,95434.78
2024-04-25T08:06:03.640Z,95424.47
2024-04-25T08:08:30.329Z,95428.88
2024-04-25T08:10:57.181Z,95427.84
2024-04-25T08:13:25.826Z,95422.84
2024-04-25T08:15:52.566Z,95425.75
2024-04-25T08:18:19.261Z,95418.78
2024-04-25T08:20:45.945Z,95427.16
2024-04-25T08:23:12.828Z,95433.63
2024-04-25T08:25:39.448Z,95426.44
2024-04-25T08:28:09.141Z,95426.03
2024-04-25T08:30:35.730Z,95429.06
2024-04-25T08:33:02.572Z,95432.28
2024-04-25T08:35:29.419Z,95425.56
2024-04-25T08:37:56.305Z,95416.88
2024-04-25T08:40:22.946Z,95424.16
2024-04-25T08:42:51.781Z,95427.94
2024-04-25T08:45:18.544Z,95434.97
2024-04-25T08:47:45.291Z,95434.88
2024-04-25T08:50:13.719Z,95432.59
2024-04-25T08:52:45.450Z,95435.22
2024-04-25T08:55:13.406Z,95436.03
2024-04-25T08:57:40.057Z,95435.94
2024-04-25T09:00:07.598Z,95440.06
2024-04-25T09:02:37.414Z,95437.94
2024-04-25T09:05:04.524Z,95439.63
2024-04-25T09:07:31.366Z,95434.56
2024-04-25T09:09:58.458Z,95433.09
2024-04-25T09:12:33.126Z,95428.03
2024-04-25T09:15:02.975Z,95434.19
2024-04-25T09:17:29.841Z,95428.28
2024-04-25T09:19:59.469Z,95433.47
2024-04-25T09:22:27.139Z,95422.34
2024-04-25T09:24:53.969Z,95419.09
2024-04-25T09:27:20.592Z,95421.41
2024-04-25T09:29:47.741Z,95420.41
2024-04-25T09:32:18.137Z,95411.41
2024-04-25T09:34:44.762Z,95416.13
2024-04-25T09:37:11.541Z,95406.28
2024-04-25T09:39:42.743Z,95406.06
2024-04-25T09:42:13.289Z,95411.97
2024-04-25T09:44:40.960Z,95403.06
2024-04-25T09:47:10.778Z,95401.06
2024-04-25T09:49:46.354Z,95401.97
2024-04-25T09:52:20.506Z,95395.31
2024-04-25T09:54:49.857Z,95386.47
2024-04-25T09:57:20.449Z,95389.56
2024-04-25T09:59:58.004Z,95392.97
2024-04-25T10:02:25.770Z,95397.41
2024-04-25T10:04:53.243Z,95381.94
2024-04-25T10:07:20.639Z,95383.50
2024-04-25T10:09:49.647Z,95378.81
2024-04-25T10:12:24.115Z,95373.59
2024-04-25T10:15:01.995Z,95379.38
2024-04-25T10:17:30.929Z,95374.59
2024-04-25T10:20:00.613Z,95373.94
2024-04-25T10:22:28.182Z,95362.56
2024-04-25T10:25:01.720Z,95379.50
2024-04-25T10:27:30.153Z,95370.44
2024-04-25T10:30:07.958Z,95380.69
2024-04-25T10:32:35.295Z,95361.41
2024-04-25T10:35:05.040Z,95358.69
2024-04-25T10:37:40.764Z,95341.00
2024-04-25T10:40:08.980Z,95363.22
2024-04-25T10:42:35.734Z,95370.19
2024-04-25T10:45:03.056Z,95369.66
2024-04-25T10:47:30.540Z,95364.78
2024-04-25T10:49:57.557Z,95379.56
2024-04-25T10:52:24.522Z,95376.91
2024-04-25T10:54:51.453Z,95372.69
2024-04-25T10:57:18.177Z,95367.16
2024-04-25T10:59:46.069Z,95363.84
2024-04-25T11:02:13.305Z,95372.31
2024-04-25T11:04:41.913Z,95374.63
2024-04-25T11:07:11.942Z,95371.03
2024-04-25T11:09:38.755Z,95366.25
2024-04-25T11:12:08.832Z,95372.66
2024-04-25T11:14:36.810Z,95379.81
2024-04-25T11:17:03.462Z,95378.00
2024-04-25T11:19:33.416Z,95380.28
2024-04-25T11:22:06.611Z,95377.09
2024-04-25T11:24:33.819Z,95362.03
2024-04-25T11:27:01.396Z,95377.63
2024-04-25T11:29:29.175Z,95369.84
2024-04-25T11:31:57.418Z,95377.22
2024-04-25T11:34:26.172Z,95378.19
2024-04-25T11:37:04.070Z,95384.50
2024-04-25T11:39:31.862Z,95380.41
2024-04-25T11:42:03.666Z,95376.00
2024-04-25T11:44:32.124Z,95380.34
2024-04-25T11:47:02.469Z,95380.22
2024-04-25T11:49:30.159Z,95379.00
2024-04-25T11:51:56.925Z,95384.94
2024-04-25T11:54:23.606Z,95384.28
2024-04-25T11:56:50.375Z,95386.66
2024-04-25T11:59:17.085Z,95388.13
2024-04-25T12:01:44.500Z,95378.41
2024-04-25T12:04:11.655Z,95384.84
2024-04-25T12:06:38.639Z,95378.00
2024-04-25T12:09:05.309Z,95384.00
2024-04-25T12:11:36.831Z,95389.00
2024-04-25T12:14:04.395Z,95392.31
2024-04-25T12:16:31.067Z,95381.81
2024-04-25T12:18:57.698Z,95385.44
2024-04-25T12:21:25.174Z,95390.63
2024-04-25T12:23:52.340Z,95392.31
2024-04-25T12:26:20.501Z,95380.84
2024-04-25T12:28:48.285Z,95379.53
2024-04-25T12:31:15.497Z,95378.03
2024-04-25T12:33:42.855Z,95382.53
2024-04-25T12:36:09.761Z,95378.34
2024-04-25T12:38:36.487Z,95370.31
2024-04-25T12:41:03.224Z,95359.94
2024-04-25T12:43:29.833Z,95356.84
2024-04-25T12:46:02.938Z,95359.84
2024-04-25T12:48:30.713Z,95349.66
2024-04-25T12:50:58.449Z,95345.88
2024-04-25T12:53:25.186Z,95342.84
2024-04-25T12:55:51.937Z,95334.91
2024-04-25T12:58:18.539Z,95330.41
2024-04-25T13:00:45.176Z,95332.63
2024-04-25T13:03:11.905Z,95322.72
2024-04-25T13:05:38.704Z,95332.59
2024-04-25T13:08:06.576Z,95330.06
2024-04-25T13:10:33.180Z,95317.22
2024-04-25T13:12:59.828Z,95325.19
2024-04-25T13:15:29.908Z,95327.13
2024-04-25T13:17:57.039Z,95322.75
2024-04-25T13:20:24.138Z,95313.66
2024-04-25T13:22:50.868Z,95312.56
2024-04-25T13:25:17.517Z,95323.47
2024-04-25T13:27:44.196Z,95317.53
2024-04-25T13:30:11.411Z,95326.16
2024-04-25T13:32:42.131Z,95334.16
2024-04-25T13:35:10.052Z,95347.31
2024-04-25T13:37:36.744Z,95358.56
2024-04-25T13:40:03.564Z,95352.06
2024-04-25T13:42:34.249Z,95360.78
2024-04-25T13:45:02.313Z,95334.41
2024-04-25T13:47:29.092Z,95343.22
2024-04-25T13:49:56.261Z,95340.53
2024-04-25T13:52:25.052Z,95337.50
2024-04-25T13:54:51.718Z,95340.91
2024-04-25T13:57:18.385Z,95327.63
2024-04-25T13:59:46.051Z,95328.09
2024-04-25T14:02:12.874Z,95336.06
2024-04-25T14:04:39.618Z,95336.44
2024-04-25T14:07:09.783Z,95337.53
2024-04-25T14:09:43.404Z,95330.34
2024-04-25T14:12:10.234Z,95335.19
2024-04-25T14:14:37.241Z,95339.41
2024-04-25T14:17:04.029Z,95342.44
2024-04-25T14:19:30.666Z,95333.72
2024-04-25T14:21:57.374Z,95332.66
2024-04-25T14:24:24.111Z,95326.25
2024-04-25T14:27:09.841Z,95337.16
2024-04-25T14:29:38.989Z,95323.16
2024-04-25T14:32:06.074Z,95332.66
2024-04-25T14:34:34.565Z,95321.69
2024-04-25T14:37:03.035Z,95325.31
2024-04-25T14:39:31.330Z,95315.44
2024-04-25T14:41:59.016Z,95318.25
2024-04-25T14:44:29.881Z,95311.00
2024-04-25T14:46:57.612Z,95312.34
2024-04-25T14:49:24.230Z,95310.31
2024-04-25T14:51:51.068Z,95309.00
2024-04-25T14:54:17.722Z,95312.13
2024-04-25T14:56:44.387Z,95314.81
2024-04-25T14:59:11.363Z,95316.56
2024-04-25T15:01:38.200Z,95311.59
2024-04-25T15:04:06.937Z,95306.47
2024-04-25T15:06:40.724Z,95305.72
2024-04-25T15:09:07.423Z,95309.59
2024-04-25T15:11:34.204Z,95306.97
2024-04-25T15:14:00.938Z,95300.91
2024-04-25T15:16:27.952Z,95305.44
2024-04-25T15:18:55.566Z,95302.41
2024-04-25T15:21:22.827Z,95302.47
2024-04-25T15:23:49.607Z,95304.34
2024-04-25T15:26:17.039Z,95304.66
2024-04-25T15:28:44.006Z,95298.84
2024-04-25T15:31:10.874Z,95309.41
2024-04-25T15:33:37.654Z,95305.69
2024-04-25T15:36:04.672Z,95304.50
2024-04-25T15:38:32.135Z,95309.16
2024-04-25T15:40:58.839Z,95302.78
2024-04-25T15:43:26.138Z,95306.94
2024-04-25T15:45:52.986Z,95314.78
2024-04-25T15:48:20.788Z,95303.91
2024-04-25T15:50:47.723Z,95308.09
2024-04-25T15:53:14.497Z,95313.72
2024-04-25T15:55:42.858Z,95300.44
2024-04-25T15:58:11.453Z,95298.13
2024-04-25T16:00:38.454Z,95301.13
2024-04-25T16:03:07.725Z,95301.28
2024-04-25T16:05:35.319Z,95297.53
2024-04-25T16:08:02.199Z,95300.88
2024-04-25T16:10:28.937Z,95291.09
2024-04-25T16:12:55.838Z,95295.63
2024-04-25T16:15:22.468Z,95297.88
2024-04-25T16:17:49.889Z,95297.84
2024-04-25T16:20:16.664Z,95297.88
2024-04-25T16:22:43.630Z,95302.81
2024-04-25T16:25:10.974Z,95297.91
2024-04-25T16:27:37.765Z,95292.22
2024-04-25T16:30:04.771Z,95287.31
2024-04-25T16:32:32.218Z,95285.41
2024-04-25T16:34:59.283Z,95280.50
2024-04-25T16:37:27.480Z,95282.00
2024-04-25T16:39:56.015Z,95280.88
2024-04-25T16:42:22.953Z,95276.34
2024-04-25T16:44:52.974Z,95279.38
2024-04-25T16:47:20.012Z,95285.03
2024-04-25T16:49:46.768Z,95280.13
2024-04-25T16:52:13.754Z,95277.88
2024-04-25T16:54:40.427Z,95276.72
2024-04-25T16:57:08.305Z,95287.31
2024-04-25T16:59:35.264Z,95286.91
2024-04-25T17:02:03.057Z,95290.28
2024-04-25T17:04:32.289Z,95295.16
2024-04-25T17:06:59.641Z,95290.56
2024-04-25T17:09:28.743Z,95292.88
2024-04-25T17:11:55.821Z,95284.91
2024-04-25T17:14:22.834Z,95283.72
2024-04-25T17:16:49.631Z,95297.28
2024-04-25T17:19:19.212Z,95296.47
2024-04-25T17:21:48.363Z,95296.03
2024-04-25T17:24:17.008Z,95300.19
2024-04-25T17:26:44.072Z,95296.03
2024-04-25T17:29:11.866Z,95295.25
2024-04-25T17:31:42.090Z,95301.63
2024-04-25T17:34:08.986Z,95285.31
2024-04-25T17:36:35.649Z,95287.16
2024-04-25T17:39:03.940Z,95292.41
2024-04-25T17:41:31.018Z,95297.63
2024-04-25T17:43:57.931Z,95302.00
2024-04-25T17:46:24.624Z,95295.34
2024-04-25T17:48:51.859Z,95302.47
2024-04-25T17:51:22.474Z,95307.63
2024-04-25T17:53:50.416Z,95309.00
2024-04-25T17:56:20.140Z,95312.59
2024-04-25T17:58:46.887Z,95304.63
2024-04-25T18:01:13.758Z,95310.53
2024-04-25T18:03:40.572Z,95313.56
2024-04-25T18:06:10.388Z,95312.19
2024-04-25T18:08:37.178Z,95316.66
2024-04-25T18:11:05.108Z,95313.31
2024-04-25T18:13:32.956Z,95317.34
2024-04-25T18:15:59.707Z,95324.38
2024-04-25T18:18:26.498Z,95329.47
2024-04-25T18:20:53.404Z,95331.72
2024-04-25T18:23:20.927Z,95325.44
2024-04-25T18:25:47.747Z,95330.06
2024-04-25T18:28:14.412Z,95335.03
2024-04-25T18:30:41.153Z,95342.22
2024-04-25T18:33:07.954Z,95338.59
2024-04-25T18:35:35.245Z,95343.53
2024-04-25T18:38:02.140Z,95348.50
2024-04-25T18:40:29.006Z,95348.06
2024-04-25T18:42:58.476Z,95347.84
2024-04-25T18:45:25.200Z,95343.06
2024-04-25T18:47:51.907Z,95354.88
2024-04-25T18:50:18.861Z,95356.13
2024-04-25T18:52:46.616Z,95354.94
2024-04-25T18:55:13.554Z,95365.41
2024-04-25T18:57:40.348Z,95360.81
2024-04-25T19:00:08.014Z,95363.06
2024-04-25T19:02:35.466Z,95364.63
2024-04-25T19:05:02.233Z,95361.69
2024-04-25T19:07:28.838Z,95359.81
2024-04-25T19:09:55.568Z,95361.31
2024-04-25T19:12:22.494Z,95358.47
2024-04-25T19:14:51.701Z,95363.22
2024-04-25T19:17:18.447Z,95358.13
2024-04-25T19:19:48.260Z,95362.88
2024-04-25T19:22:14.945Z,95364.25
2024-04-25T19:24:44.879Z,95371.66
2024-04-25T19:27:11.778Z,95377.06
2024-04-25T19:29:39.225Z,95378.59
2024-04-25T19:32:06.193Z,95377.50
2024-04-25T19:34:32.987Z,95373.53
2024-04-25T19:36:59.813Z,95380.31
2024-04-25T19:39:26.486Z,95378.44
2024-04-25T19:41:55.449Z,95387.91
2024-04-25T19:44:23.463Z,95380.31
2024-04-25T19:46:50.352Z,95389.31
2024-04-25T19:49:19.810Z,95383.63
2024-04-25T19:51:47.773Z,95382.56
2024-04-25T19:54:20.848Z,95380.22
2024-04-25T19:56:48.936Z,95387.28
2024-04-25T19:59:15.936Z,95381.81
2024-04-25T20:01:52.943Z,95383.56
2024-04-25T20:04:22.112Z,95380.06
2024-04-25T20:06:52.485Z,95385.50
2024-04-25T20:09:20.002Z,95385.25
2024-04-25T20:11:47.242Z,95384.91
2024-04-25T20:14:14.308Z,95381.72
2024-04-25T20:16:41.316Z,95387.13
2024-04-25T20:19:26.737Z,95384.91
2024-04-25T20:21:54.511Z,95387.19
2024-04-25T20:24:21.229Z,95386.69
2024-04-25T20:26:49.689Z,95380.28
2024-04-25T20:29:16.847Z,95395.34
2024-04-25T20:31:44.305Z,95390.84
2024-04-25T20:34:11.109Z,95390.78
2024-04-25T20:36:37.920Z,95383.59
2024-04-25T20:39:04.837Z,95387.44
2024-04-25T20:41:31.558Z,95393.63
2024-04-25T20:43:58.434Z,95393.13
2024-04-25T20:46:25.179Z,95385.53
2024-04-25T20:48:55.825Z,95385.88
2024-04-25T20:51:23.612Z,95385.38
2024-04-25T20:53:50.487Z,95386.44
2024-04-25T20:56:17.287Z,95388.31
2024-04-25T20:58:45.594Z,95386.19
2024-04-25T21:01:12.672Z,95387.88
2024-04-25T21:03:39.719Z,95392.50
2024-04-25T21:06:06.777Z,95400.44
2024-04-25T21:08:33.468Z,95393.19
2024-04-25T21:11:00.304Z,95395.66
2024-04-25T21:13:31.116Z,95392.88
2024-04-25T21:15:58.261Z,95397.28
2024-04-25T21:18:24.981Z,95395.69
2024-04-25T21:20:51.796Z,95397.81
2024-04-25T21:23:18.547Z,95388.78
2024-04-25T21:25:51.561Z,95378.06
2024-04-25T21:28:21.648Z,95386.53
2024-04-25T21:30:48.280Z,95395.91
2024-04-25T21:33:15.144Z,95395.84
2024-04-25T21:35:41.936Z,95390.91
2024-04-25T21:38:08.572Z,95393.81
2024-04-25T21:40:36.023Z,95396.38
2024-04-25T21:43:02.748Z,95382.06
2024-04-25T21:45:29.390Z,95387.16
2024-04-25T21:47:56.895Z,95387.91
2024-04-25T21:50:23.666Z,95384.09
2024-04-25T21:52:50.446Z,95376.41
2024-04-25T21:55:17.060Z,95378.78
2024-04-25T21:57:43.718Z,95376.16
2024-04-25T22:00:10.586Z,95375.47
2024-04-25T22:02:37.565Z,95386.91
2024-04-25T22:05:04.436Z,95384.34
2024-04-25T22:07:31.060Z,95382.09
2024-04-25T22:09:57.769Z,95380.06
2024-04-25T22:12:24.835Z,95374.13
2024-04-25T22:14:52.461Z,95372.16
2024-04-25T22:17:19.289Z,95387.13
2024-04-25T22:19:46.026Z,95371.50
2024-04-25T22:22:12.640Z,95382.16
2024-04-25T22:24:40.679Z,95385.97
2024-04-25T22:27:07.608Z,95385.22
2024-04-25T22:29:34.267Z,95377.16
2024-04-25T22:32:01.011Z,95378.25
2024-04-25T22:34:27.741Z,95376.41
2024-04-25T22:36:54.420Z,95377.94
2024-04-25T22:39:21.091Z,95382.41
2024-04-25T22:41:47.789Z,95382.63
2024-04-25T22:44:14.382Z,95384.00
2024-04-25T22:46:41.061Z,95371.22
2024-04-25T22:49:08.509Z,95369.94
2024-04-25T22:51:38.463Z,95368.88
2024-04-25T22:54:05.149Z,95375.78
2024-04-25T22:56:31.776Z,95368.16
2024-04-25T22:59:00.716Z,95372.66
2024-04-25T23:01:29.903Z,95368.16
2024-04-25T23:03:56.586Z,95368.00
2024-04-25T23:06:23.302Z,95362.59
2024-04-25T23:08:49.951Z,95370.22
2024-04-25T23:11:20.619Z,95370.44
2024-04-25T23:13:47.352Z,95370.13
2024-04-25T23:16:15.155Z,95354.16
2024-04-25T23:18:42.487Z,95355.47
2024-04-25T23:21:09.394Z,95359.38
2024-04-25T23:23:36.165Z,95363.09
2024-04-25T23:26:03.185Z,95353.22
2024-04-25T23:28:29.774Z,95352.59
2024-04-25T23:30:56.403Z,95346.84
2024-04-25T23:33:24.565Z,95346.97
2024-04-25T23:35:51.621Z,95348.16
2024-04-25T23:38:18.808Z,95344.69
2024-04-25T23:40:45.454Z,95349.81
2024-04-25T23:43:12.080Z,95339.91
2024-04-25T23:45:38.768Z,95344.63
2024-04-25T23:48:06.084Z,95348.63
2024-04-25T23:50:32.912Z,95338.66
2024-04-25T23:52:59.519Z,95336.03
2024-04-25T23:55:26.200Z,95338.13
2024-04-25T23:57:52.849Z,95340.06
